createdAt,value
2022-09-29T00:00:39.371Z,1.48
2022-09-29T00:03:06.834Z,1.60
2022-09-29T00:05:34.004Z,1.48
2022-09-29T00:08:00.911Z,1.50
2022-09-29T00:10:27.704Z,1.98
2022-09-29T00:12:54.471Z,1.70
2022-09-29T00:15:21.189Z,1.42
2022-09-29T00:18:09.688Z,1.60
2022-09-29T00:20:34.772Z,1.73
2022-09-29T00:23:01.652Z,1.50
2022-09-29T00:25:28.532Z,1.70
2022-09-29T00:27:55.212Z,1.90
2022-09-29T00:30:21.921Z,1.50
2022-09-29T00:32:48.562Z,1.23
2022-09-29T00:35:17.871Z,1.20
2022-09-29T00:37:44.943Z,1.17
2022-09-29T00:40:11.734Z,1.48
2022-09-29T00:42:38.387Z,0.98
2022-09-29T00:45:24.403Z,1.30
2022-09-29T00:48:13.159Z,1.10
2022-09-29T00:50:46.951Z,1.42
2022-09-29T00:53:20.560Z,1.30
2022-09-29T00:55:51.854Z,1.40
2022-09-29T00:58:28.254Z,1.55
2022-09-29T01:00:55.436Z,1.52
2022-09-29T01:03:24.292Z,1.30
2022-09-29T01:05:58.291Z,1.40
2022-09-29T01:08:40.587Z,1.50
2022-09-29T01:11:07.864Z,1.38
2022-09-29T01:13:34.870Z,1.48
2022-09-29T01:16:01.805Z,1.40
2022-09-29T01:18:28.891Z,1.40
2022-09-29T01:21:36.830Z,1.30
2022-09-29T01:24:41.217Z,1.48
2022-09-29T01:27:20.335Z,1.33
2022-09-29T01:30:02.466Z,1.40
2022-09-29T01:32:29.052Z,1.42
2022-09-29T01:35:20.945Z,1.50
2022-09-29T01:37:53.420Z,1.60
2022-09-29T01:40:58.557Z,1.73
2022-09-29T01:43:31.114Z,1.60
2022-09-29T01:46:02.332Z,1.30
2022-09-29T01:48:33.734Z,1.70
2022-09-29T01:51:11.083Z,1.45
2022-09-29T01:53:43.109Z,1.52
2022-09-29T01:56:14.894Z,1.20
2022-09-29T01:58:52.636Z,1.20
2022-09-29T02:01:21.795Z,1.50
2022-09-29T02:04:02.152Z,1.50
2022-09-29T02:06:40.314Z,1.33
2022-09-29T02:09:15.694Z,1.38
2022-09-29T02:11:43.040Z,1.27
2022-09-29T02:14:40.794Z,1.73
2022-09-29T02:17:20.923Z,1.50
2022-09-29T02:19:51.151Z,1.27
2022-09-29T02:22:18.600Z,1.38
2022-09-29T02:24:45.643Z,1.50
2022-09-29T02:27:13.078Z,1.20
2022-09-29T02:29:40.149Z,1.60
2022-09-29T02:32:09.951Z,1.38
2022-09-29T02:34:43.594Z,1.42
2022-09-29T02:37:36.454Z,1.52
2022-09-29T02:40:08.944Z,1.45
2022-09-29T02:43:02.243Z,1.58
2022-09-29T02:45:35.754Z,1.20
2022-09-29T02:48:41.188Z,1.30
2022-09-29T02:51:50.770Z,1.60
2022-09-29T02:54:26.569Z,1.30
2022-09-29T02:57:32.711Z,1.35
2022-09-29T03:00:06.820Z,1.50
2022-09-29T03:02:33.545Z,1.13
2022-09-29T03:05:00.394Z,1.20
2022-09-29T03:07:27.296Z,1.50
2022-09-29T03:09:53.999Z,1.10
2022-09-29T03:12:20.726Z,1.30
2022-09-29T03:14:47.371Z,1.30
2022-09-29T03:17:14.055Z,1.60
2022-09-29T03:19:40.730Z,1.45
2022-09-29T03:22:07.350Z,1.17
2022-09-29T03:24:34.135Z,1.20
2022-09-29T03:27:00.810Z,1.77
2022-09-29T03:29:27.460Z,1.50
2022-09-29T03:31:54.164Z,1.42
2022-09-29T03:34:20.896Z,1.25
2022-09-29T03:36:47.547Z,1.23
2022-09-29T03:39:14.225Z,1.50
2022-09-29T03:41:41.168Z,1.30
2022-09-29T03:44:07.903Z,1.15
2022-09-29T03:46:34.696Z,1.23
2022-09-29T03:49:01.398Z,1.35
2022-09-29T03:51:28.040Z,1.40
2022-09-29T03:53:54.714Z,1.10
2022-09-29T03:56:21.538Z,1.75
2022-09-29T03:58:50.179Z,1.40
2022-09-29T04:01:17.135Z,1.40
2022-09-29T04:03:43.811Z,1.60
2022-09-29T04:06:10.461Z,1.27
2022-09-29T04:08:37.574Z,1.30
2022-09-29T04:11:05.295Z,1.33
2022-09-29T04:13:32.240Z,1.40
2022-09-29T04:16:00.427Z,1.35
2022-09-29T04:18:27.249Z,1.60
2022-09-29T04:20:54.491Z,1.40
2022-09-29T04:23:21.243Z,1.58
2022-09-29T04:25:47.875Z,1.40
2022-09-29T04:28:14.603Z,1.63
2022-09-29T04:30:41.223Z,1.75
2022-09-29T04:33:07.843Z,1.35
2022-09-29T04:35:36.950Z,1.30
2022-09-29T04:38:04.143Z,1.38
2022-09-29T04:40:30.871Z,1.45
2022-09-29T04:42:57.527Z,1.63
2022-09-29T04:45:24.180Z,1.60
2022-09-29T04:47:50.815Z,1.30
2022-09-29T04:50:17.612Z,1.40
2022-09-29T04:52:46.175Z,1.38
2022-09-29T04:55:12.976Z,1.38
2022-09-29T04:57:41.471Z,1.50
2022-09-29T05:00:09.003Z,1.50
2022-09-29T05:02:35.941Z,1.58
2022-09-29T05:05:03.232Z,1.35
2022-09-29T05:07:30.190Z,1.42
2022-09-29T05:09:57.292Z,1.40
2022-09-29T05:12:24.043Z,1.48
2022-09-29T05:14:50.815Z,1.60
2022-09-29T05:17:17.447Z,1.75
2022-09-29T05:19:44.084Z,1.77
2022-09-29T05:22:10.875Z,1.50
2022-09-29T05:24:37.575Z,1.40
2022-09-29T05:27:04.384Z,1.35
2022-09-29T05:29:31.160Z,1.20
2022-09-29T05:31:57.945Z,1.63
2022-09-29T05:34:24.674Z,1.10
2022-09-29T05:36:51.346Z,1.50
2022-09-29T05:39:20.993Z,1.50
2022-09-29T05:41:49.194Z,1.98
2022-09-29T05:44:16.647Z,1.10
2022-09-29T05:46:43.338Z,1.92
2022-09-29T05:49:10.944Z,1.90
2022-09-29T05:51:37.570Z,1.55
2022-09-29T05:54:04.392Z,1.60
2022-09-29T05:56:31.101Z,2.53
2022-09-29T05:58:57.730Z,1.98
2022-09-29T06:01:25.920Z,1.45
2022-09-29T06:03:56.638Z,1.70
2022-09-29T06:06:26.355Z,1.55
2022-09-29T06:08:53.251Z,1.60
2022-09-29T06:11:25.197Z,1.50
2022-09-29T06:13:53.112Z,1.52
2022-09-29T06:16:22.023Z,2.00
2022-09-29T06:18:48.780Z,1.88
2022-09-29T06:21:21.198Z,1.65
2022-09-29T06:23:48.020Z,1.70
2022-09-29T06:26:20.142Z,1.55
2022-09-29T06:28:49.582Z,1.70
2022-09-29T06:31:18.485Z,1.40
2022-09-29T06:33:45.672Z,1.58
2022-09-29T06:36:41.668Z,1.42
2022-09-29T06:39:10.373Z,1.80
2022-09-29T06:41:37.061Z,1.55
2022-09-29T06:44:04.053Z,1.80
2022-09-29T06:46:31.105Z,1.63
2022-09-29T06:48:57.903Z,1.40
2022-09-29T06:51:32.240Z,1.80
2022-09-29T06:54:11.381Z,1.83
2022-09-29T06:56:39.045Z,1.50
2022-09-29T06:59:06.194Z,1.77
2022-09-29T07:01:32.914Z,1.88
2022-09-29T07:04:02.848Z,1.50
2022-09-29T07:06:30.285Z,1.48
2022-09-29T07:08:58.747Z,1.60
2022-09-29T07:11:26.248Z,1.40
2022-09-29T07:13:54.864Z,1.80
2022-09-29T07:16:25.328Z,1.40
2022-09-29T07:18:52.731Z,1.58
2022-09-29T07:21:19.453Z,1.35
2022-09-29T07:23:47.307Z,1.30
2022-09-29T07:26:16.325Z,1.50
2022-09-29T07:28:43.871Z,1.40
2022-09-29T07:31:15.571Z,1.40
2022-09-29T07:33:43.878Z,1.33
2022-09-29T07:36:10.865Z,1.35
2022-09-29T07:38:37.516Z,1.63
2022-09-29T07:41:08.713Z,1.23
2022-09-29T07:43:35.450Z,1.25
2022-09-29T07:46:02.649Z,1.33
2022-09-29T07:48:32.284Z,1.48
2022-09-29T07:51:07.114Z,1.10
2022-09-29T07:53:34.517Z,1.20
2022-09-29T07:56:09.508Z,1.30
2022-09-29T07:58:37.445Z,1.08
2022-09-29T08:01:06.535Z,1.48
2022-09-29T08:03:33.691Z,1.27
2022-09-29T08:06:00.319Z,1.20
2022-09-29T08:08:27.280Z,1.10
2022-09-29T08:11:05.135Z,1.08
2022-09-29T08:13:32.742Z,1.33
2022-09-29T08:16:00.520Z,1.55
2022-09-29T08:18:28.295Z,1.63
2022-09-29T08:20:56.723Z,1.40
2022-09-29T08:23:27.022Z,1.33
2022-09-29T08:26:04.645Z,1.60
2022-09-29T08:28:32.834Z,1.50
2022-09-29T08:31:04.751Z,1.30
2022-09-29T08:33:32.689Z,1.30
2022-09-29T08:36:06.380Z,1.20
2022-09-29T08:38:34.071Z,1.53
2022-09-29T08:41:08.726Z,1.20
2022-09-29T08:43:40.773Z,1.42
2022-09-29T08:46:12.694Z,1.38
2022-09-29T08:48:55.847Z,1.40
2022-09-29T08:51:41.767Z,1.75
2022-09-29T08:54:40.098Z,1.45
2022-09-29T08:57:18.118Z,1.50
2022-09-29T08:59:56.824Z,1.55
2022-09-29T09:02:49.185Z,1.52
2022-09-29T09:05:30.039Z,1.45
2022-09-29T09:08:13.070Z,1.50
2022-09-29T09:10:47.210Z,1.85
2022-09-29T09:13:20.979Z,1.97
2022-09-29T09:15:51.433Z,1.42
2022-09-29T09:18:22.460Z,1.80
2022-09-29T09:21:04.255Z,1.60
2022-09-29T09:24:03.077Z,1.40
2022-09-29T09:26:40.135Z,1.58
2022-09-29T09:29:24.614Z,1.60
2022-09-29T09:32:07.403Z,1.40
2022-09-29T09:34:53.985Z,1.70
2022-09-29T09:37:41.972Z,1.85
2022-09-29T09:40:20.287Z,2.00
2022-09-29T09:43:03.993Z,1.60
2022-09-29T09:45:48.370Z,1.33
2022-09-29T09:48:31.934Z,1.80
2022-09-29T09:51:02.163Z,1.25
2022-09-29T09:53:37.818Z,1.65
2022-09-29T09:56:10.612Z,1.33
2022-09-29T09:58:42.632Z,1.30
2022-09-29T10:01:12.012Z,2.13
2022-09-29T10:03:39.271Z,1.23
2022-09-29T10:06:09.353Z,1.30
2022-09-29T10:08:40.016Z,1.40
2022-09-29T10:11:23.185Z,2.25
2022-09-29T10:13:57.895Z,1.63
2022-09-29T10:16:35.585Z,1.52
2022-09-29T10:19:02.479Z,1.48
2022-09-29T10:21:32.084Z,1.45
2022-09-29T10:24:00.857Z,1.48
2022-09-29T10:26:44.816Z,1.27
2022-09-29T10:29:28.445Z,1.58
2022-09-29T10:32:06.954Z,1.60
2022-09-29T10:34:36.929Z,1.40
2022-09-29T10:37:25.539Z,1.23
2022-09-29T10:40:23.836Z,1.30
2022-09-29T10:42:51.583Z,1.42
2022-09-29T10:45:29.921Z,1.30
2022-09-29T10:48:00.523Z,1.20
2022-09-29T10:50:31.007Z,1.50
2022-09-29T10:53:18.513Z,1.10
2022-09-29T10:55:51.936Z,1.23
2022-09-29T10:58:44.747Z,1.33
2022-09-29T11:01:17.103Z,1.05
2022-09-29T11:04:03.879Z,1.20
2022-09-29T11:06:39.386Z,1.20
2022-09-29T11:09:15.647Z,1.10
2022-09-29T11:11:48.531Z,1.17
2022-09-29T11:14:27.563Z,1.15
2022-09-29T11:16:56.470Z,1.48
2022-09-29T11:19:23.564Z,0.98
2022-09-29T11:22:11.911Z,1.15
2022-09-29T11:25:05.802Z,1.25
2022-09-29T11:28:04.560Z,1.10
2022-09-29T11:30:42.566Z,1.10
2022-09-29T11:33:36.950Z,1.30
2022-09-29T11:36:45.978Z,1.47
2022-09-29T11:39:33.356Z,1.23
2022-09-29T11:42:00.039Z,1.05
2022-09-29T11:44:43.695Z,0.88
2022-09-29T11:47:29.460Z,1.00
2022-09-29T11:50:11.718Z,1.02
2022-09-29T11:52:42.200Z,1.08
2022-09-29T11:55:19.984Z,1.05
2022-09-29T11:58:12.750Z,0.82
2022-09-29T12:01:07.318Z,0.82
2022-09-29T12:03:43.353Z,0.90
2022-09-29T12:06:33.150Z,1.20
2022-09-29T12:09:28.693Z,1.15
2022-09-29T12:12:22.569Z,1.75
2022-09-29T12:15:14.715Z,1.40
2022-09-29T12:17:48.219Z,1.58
2022-09-29T12:20:34.432Z,1.33
2022-09-29T12:23:05.047Z,1.30
2022-09-29T12:25:34.766Z,1.65
2022-09-29T12:28:18.818Z,0.95
2022-09-29T12:30:56.252Z,1.33
2022-09-29T12:33:33.276Z,1.00
2022-09-29T12:36:46.215Z,13.75
2022-09-29T12:39:39.405Z,5.45
2022-09-29T12:42:23.348Z,5.00
2022-09-29T12:44:56.911Z,1.67
2022-09-29T12:47:38.265Z,1.10
2022-09-29T12:50:16.825Z,1.00
2022-09-29T12:53:09.162Z,0.90
2022-09-29T12:55:49.952Z,1.92
2022-09-29T12:58:46.807Z,2.40
2022-09-29T13:01:31.755Z,1.80
2022-09-29T13:04:20.442Z,1.83
2022-09-29T13:07:05.928Z,1.63
2022-09-29T13:09:49.379Z,1.67
2022-09-29T13:12:27.946Z,1.60
2022-09-29T13:15:21.034Z,1.92
2022-09-29T13:18:03.163Z,2.50
2022-09-29T13:20:34.734Z,2.70
2022-09-29T13:23:25.410Z,2.30
2022-09-29T13:26:07.015Z,2.47
2022-09-29T13:28:36.663Z,1.45
2022-09-29T13:31:06.013Z,1.38
2022-09-29T13:33:33.282Z,1.40
2022-09-29T13:36:00.589Z,1.40
2022-09-29T13:38:33.925Z,1.67
2022-09-29T13:41:12.309Z,2.60
2022-09-29T13:43:50.893Z,1.00
2022-09-29T13:46:31.730Z,0.68
2022-09-29T13:49:12.016Z,1.20
2022-09-29T13:51:48.243Z,1.17
2022-09-29T13:54:26.692Z,1.63
2022-09-29T13:57:04.133Z,1.40
2022-09-29T13:59:30.940Z,1.00
2022-09-29T14:01:58.214Z,0.80
2022-09-29T14:04:41.004Z,1.25
2022-09-29T14:07:10.564Z,1.20
2022-09-29T14:09:41.676Z,0.70
2022-09-29T14:12:16.985Z,0.73
2022-09-29T14:14:46.915Z,0.85
2022-09-29T14:17:25.553Z,1.42
2022-09-29T14:19:55.233Z,2.00
2022-09-29T14:22:30.910Z,1.52
2022-09-29T14:25:10.564Z,1.88
2022-09-29T14:27:51.727Z,3.92
2022-09-29T14:30:37.700Z,1.30
2022-09-29T14:33:22.096Z,0.55
2022-09-29T14:35:55.547Z,0.60
2022-09-29T14:38:24.940Z,0.60
2022-09-29T14:41:11.840Z,0.85
2022-09-29T14:43:51.121Z,0.80
2022-09-29T14:46:48.484Z,0.80
2022-09-29T14:50:04.853Z,0.60
2022-09-29T14:52:56.425Z,0.75
2022-09-29T14:55:47.945Z,0.52
2022-09-29T14:58:33.294Z,0.47
2022-09-29T15:01:29.354Z,0.65
2022-09-29T15:04:07.541Z,1.00
2022-09-29T15:06:34.790Z,0.60
2022-09-29T15:09:02.977Z,0.50
2022-09-29T15:11:37.368Z,0.80
2022-09-29T15:14:24.802Z,1.15
2022-09-29T15:17:09.948Z,1.10
2022-09-29T15:20:07.953Z,1.20
2022-09-29T15:23:15.757Z,1.50
2022-09-29T15:25:43.725Z,3.05
2022-09-29T15:28:18.097Z,1.98
2022-09-29T15:30:46.350Z,1.70
2022-09-29T15:33:19.423Z,1.30
2022-09-29T15:35:48.928Z,1.15
2022-09-29T15:38:18.445Z,1.17
2022-09-29T15:40:53.320Z,1.70
2022-09-29T15:43:22.353Z,1.50
2022-09-29T15:45:59.484Z,1.40
2022-09-29T15:48:27.530Z,0.90
2022-09-29T15:50:55.697Z,1.10
2022-09-29T15:53:27.685Z,0.90
2022-09-29T15:55:55.332Z,1.15
2022-09-29T15:58:43.866Z,1.17
2022-09-29T16:01:13.280Z,1.00
2022-09-29T16:03:44.645Z,1.10
2022-09-29T16:06:19.871Z,1.48
2022-09-29T16:08:49.368Z,7.53
2022-09-29T16:11:23.229Z,7.80
2022-09-29T16:13:54.630Z,5.53
2022-09-29T16:16:27.925Z,3.20
2022-09-29T16:18:59.923Z,5.95
2022-09-29T16:21:33.646Z,2.47
2022-09-29T16:24:06.137Z,1.70
2022-09-29T16:26:33.888Z,1.50
2022-09-29T16:29:14.291Z,2.08
2022-09-29T16:31:43.004Z,2.55
2022-09-29T16:34:21.938Z,2.05
2022-09-29T16:37:00.333Z,2.17
2022-09-29T16:39:30.156Z,2.58
2022-09-29T16:41:58.927Z,2.42
2022-09-29T16:44:28.629Z,2.38
2022-09-29T16:47:02.385Z,2.22
2022-09-29T16:49:32.215Z,2.05
2022-09-29T16:52:34.168Z,2.40
2022-09-29T16:55:27.907Z,2.30
2022-09-29T16:58:15.061Z,2.47
2022-09-29T17:00:44.446Z,2.30
2022-09-29T17:03:11.158Z,3.00
2022-09-29T17:05:43.777Z,2.47
2022-09-29T17:08:21.050Z,2.55
2022-09-29T17:10:52.207Z,3.10
2022-09-29T17:13:19.568Z,3.80
2022-09-29T17:15:51.447Z,3.45
2022-09-29T17:18:19.832Z,2.95
2022-09-29T17:20:46.542Z,2.85
2022-09-29T17:23:13.333Z,2.80
2022-09-29T17:25:42.984Z,2.50
2022-09-29T17:28:19.032Z,3.00
2022-09-29T17:30:47.778Z,2.90
2022-09-29T17:33:16.321Z,3.13
2022-09-29T17:35:51.567Z,3.17
2022-09-29T17:38:21.898Z,4.13
2022-09-29T17:40:56.607Z,4.45
2022-09-29T17:43:24.495Z,4.35
2022-09-29T17:45:51.996Z,4.88
2022-09-29T17:48:20.004Z,4.80
2022-09-29T17:50:51.092Z,5.15
2022-09-29T17:53:19.003Z,4.78
2022-09-29T17:55:49.486Z,4.68
2022-09-29T17:58:17.624Z,5.20
2022-09-29T18:00:49.157Z,4.70
2022-09-29T18:03:17.415Z,4.75
2022-09-29T18:05:47.332Z,4.30
2022-09-29T18:08:16.335Z,4.03
2022-09-29T18:10:52.476Z,4.20
2022-09-29T18:13:19.983Z,4.68
2022-09-29T18:15:47.015Z,4.65
2022-09-29T18:18:18.377Z,4.57
2022-09-29T18:20:47.119Z,4.60
2022-09-29T18:23:15.267Z,5.03
2022-09-29T18:25:47.396Z,5.30
2022-09-29T18:28:15.535Z,5.50
2022-09-29T18:30:43.390Z,5.40
2022-09-29T18:33:14.666Z,4.88
2022-09-29T18:35:46.497Z,4.72
2022-09-29T18:38:13.230Z,3.22
2022-09-29T18:40:40.229Z,4.80
2022-09-29T18:43:07.787Z,4.45
2022-09-29T18:45:36.583Z,4.70
2022-09-29T18:48:06.001Z,4.53
2022-09-29T18:50:44.608Z,4.75
2022-09-29T18:53:21.223Z,4.07
2022-09-29T18:55:51.871Z,3.83
2022-09-29T18:58:20.987Z,4.00
2022-09-29T19:00:55.974Z,6.78
2022-09-29T19:03:30.301Z,19.00
2022-09-29T19:06:17.978Z,8.02
2022-09-29T19:08:52.384Z,6.72
2022-09-29T19:11:24.465Z,6.07
2022-09-29T19:13:58.333Z,6.97
2022-09-29T19:16:35.688Z,5.70
2022-09-29T19:19:11.513Z,5.43
2022-09-29T19:21:43.702Z,4.57
2022-09-29T19:24:17.679Z,5.25
2022-09-29T19:26:56.474Z,5.47
2022-09-29T19:29:24.718Z,5.15
2022-09-29T19:31:59.959Z,5.60
2022-09-29T19:34:29.447Z,5.30
2022-09-29T19:37:03.266Z,5.30
2022-09-29T19:39:44.752Z,6.20
2022-09-29T19:42:15.690Z,6.50
2022-09-29T19:44:42.638Z,6.65
2022-09-29T19:47:09.927Z,6.63
2022-09-29T19:49:36.826Z,5.95
2022-09-29T19:52:04.277Z,6.03
2022-09-29T19:54:35.949Z,6.22
2022-09-29T19:57:08.571Z,7.18
2022-09-29T19:59:37.976Z,8.77
2022-09-29T20:02:12.276Z,10.50
2022-09-29T20:04:39.636Z,11.10
2022-09-29T20:07:06.961Z,9.75
2022-09-29T20:09:34.172Z,9.18
2022-09-29T20:12:01.234Z,8.77
2022-09-29T20:14:28.735Z,8.15
2022-09-29T20:16:57.576Z,8.98
2022-09-29T20:19:25.044Z,8.63
2022-09-29T20:21:52.956Z,8.25
2022-09-29T20:24:21.502Z,7.65
2022-09-29T20:26:48.607Z,7.88
2022-09-29T20:29:20.108Z,7.78
2022-09-29T20:31:47.997Z,7.97
2022-09-29T20:34:16.623Z,7.78
2022-09-29T20:36:43.510Z,7.25
2022-09-29T20:39:11.316Z,7.05
2022-09-29T20:41:38.108Z,9.38
2022-09-29T20:44:05.228Z,16.23
2022-09-29T20:46:32.008Z,19.45
2022-09-29T20:48:59.331Z,17.13
2022-09-29T20:51:26.790Z,15.68
2022-09-29T20:53:55.995Z,13.95
2022-09-29T20:56:25.657Z,14.85
2022-09-29T20:58:52.331Z,11.68
2022-09-29T21:01:20.946Z,11.20
2022-09-29T21:03:51.434Z,10.27
2022-09-29T21:06:19.205Z,8.55
2022-09-29T21:08:45.879Z,8.52
2022-09-29T21:11:12.583Z,9.60
2022-09-29T21:13:39.379Z,10.75
2022-09-29T21:16:06.575Z,11.05
2022-09-29T21:18:34.330Z,9.88
2022-09-29T21:21:03.462Z,8.13
2022-09-29T21:23:31.661Z,8.40
2022-09-29T21:26:04.221Z,7.35
2022-09-29T21:28:32.613Z,7.03
2022-09-29T21:31:03.880Z,6.35
2022-09-29T21:33:31.068Z,6.00
2022-09-29T21:36:03.294Z,5.55
2022-09-29T21:38:31.413Z,5.78
2022-09-29T21:41:09.642Z,5.60
2022-09-29T21:43:36.915Z,5.07
2022-09-29T21:46:04.925Z,5.70
2022-09-29T21:48:33.690Z,6.10
2022-09-29T21:51:03.362Z,5.40
2022-09-29T21:53:31.597Z,5.00
2022-09-29T21:56:05.185Z,5.25
2022-09-29T21:58:31.914Z,4.43
2022-09-29T22:00:59.041Z,4.68
2022-09-29T22:03:29.792Z,4.45
2022-09-29T22:05:56.558Z,4.18
2022-09-29T22:08:26.142Z,4.22
2022-09-29T22:10:53.772Z,4.40
2022-09-29T22:13:24.877Z,5.78
2022-09-29T22:16:03.900Z,7.43
2022-09-29T22:18:41.100Z,8.65
2022-09-29T22:21:10.951Z,6.03
2022-09-29T22:23:37.721Z,4.70
2022-09-29T22:26:05.294Z,5.22
2022-09-29T22:28:32.338Z,4.43
2022-09-29T22:31:09.604Z,4.47
2022-09-29T22:33:38.055Z,4.25
2022-09-29T22:36:05.347Z,3.63
2022-09-29T22:38:34.376Z,3.60
2022-09-29T22:41:01.025Z,3.47
2022-09-29T22:43:27.694Z,3.92
2022-09-29T22:45:54.471Z,3.70
2022-09-29T22:48:21.155Z,3.47
2022-09-29T22:50:48.761Z,3.08
2022-09-29T22:53:16.126Z,3.58
2022-09-29T22:55:42.877Z,3.47
2022-09-29T22:58:10.408Z,2.97
2022-09-29T23:00:38.232Z,3.33
2022-09-29T23:03:05.858Z,3.20
2022-09-29T23:05:33.467Z,3.20
2022-09-29T23:08:00.242Z,3.03
2022-09-29T23:10:26.972Z,2.92
2022-09-29T23:12:53.894Z,3.08
2022-09-29T23:15:20.813Z,2.85
2022-09-29T23:17:47.946Z,3.00
2022-09-29T23:20:14.606Z,3.20
2022-09-29T23:22:41.271Z,3.00
2022-09-29T23:25:08.275Z,2.95
2022-09-29T23:27:35.039Z,2.72
2022-09-29T23:30:02.068Z,3.03
2022-09-29T23:32:28.802Z,2.67
2022-09-29T23:34:55.557Z,2.90
2022-09-29T23:37:22.254Z,2.63
2022-09-29T23:39:48.926Z,2.55
2022-09-29T23:42:15.673Z,2.70
2022-09-29T23:44:42.368Z,2.75
2022-09-29T23:47:08.991Z,2.60
2022-09-29T23:49:35.787Z,2.75
2022-09-29T23:52:06.279Z,2.72
2022-09-29T23:54:33.060Z,2.83
2022-09-29T23:56:59.750Z,2.72
2022-09-29T23:59:26.669Z,2.60
